createdAt,value
2023-05-24T04:31:33.161Z,20.5358
2023-05-24T04:32:35.000Z,20.9974
2023-05-24T04:33:37.036Z,21.3556
2023-05-24T04:34:39.164Z,21.6247
2023-05-24T04:35:41.114Z,21.8166
2023-05-24T04:36:43.148Z,21.9628
2023-05-24T04:37:45.217Z,22.1261
2023-05-24T04:38:47.278Z,22.2109
2023-05-24T04:39:49.379Z,22.2627
2023-05-24T04:40:51.345Z,22.3769
2023-05-24T04:41:53.407Z,22.5100
2023-05-24T04:42:55.420Z,22.5357
2023-05-24T04:43:57.449Z,22.6663
2023-05-24T04:44:59.514Z,22.7434
2023-05-24T04:46:01.559Z,22.7388
2023-05-24T04:47:03.687Z,22.7974
2023-05-24T04:48:05.696Z,22.8473
2023-05-24T04:49:07.673Z,22.8557
2023-05-24T04:50:09.761Z,22.9034
2023-05-24T04:51:11.781Z,22.9067
2023-05-24T04:52:13.838Z,22.9387
2023-05-24T04:53:15.871Z,23.0030
2023-05-24T04:54:17.914Z,23.0326
2023-05-24T04:55:19.949Z,23.0125
2023-05-24T04:56:21.989Z,23.0270
2023-05-24T04:57:24.035Z,23.0410
2023-05-24T04:58:26.087Z,23.1201
2023-05-24T04:59:28.111Z,23.1090
2023-05-24T05:00:30.174Z,23.0375
2023-05-24T05:01:32.222Z,23.0585
2023-05-24T05:02:34.301Z,23.0593
2023-05-24T05:03:36.412Z,23.0661
2023-05-24T05:04:38.326Z,23.1433
2023-05-24T05:05:40.376Z,23.1260
2023-05-24T05:06:42.442Z,23.1275
2023-05-24T05:07:44.496Z,23.1080
2023-05-24T05:08:46.519Z,23.0182
2023-05-24T05:09:48.588Z,23.0792
2023-05-24T05:10:50.633Z,23.0843
2023-05-24T05:11:52.672Z,23.0829
2023-05-24T05:12:54.706Z,23.1250
2023-05-24T05:13:56.798Z,23.1975
2023-05-24T05:14:58.796Z,23.0895
2023-05-24T05:16:00.882Z,23.0297
2023-05-24T05:17:02.912Z,22.9517
2023-05-24T05:18:04.991Z,23.0051
2023-05-24T05:19:07.007Z,23.0038
2023-05-24T05:20:09.133Z,23.0180
2023-05-24T05:21:11.070Z,23.0733
2023-05-24T05:22:13.114Z,23.0632
2023-05-24T05:23:15.287Z,23.0381
2023-05-24T05:24:17.243Z,23.0521
2023-05-24T05:25:19.277Z,23.0905
2023-05-24T05:26:21.313Z,23.0490
2023-05-24T05:27:23.355Z,22.9814
2023-05-24T05:28:25.398Z,22.9629
2023-05-24T05:29:27.424Z,22.9239
2023-05-24T05:30:29.513Z,22.9434
2023-05-24T05:31:31.538Z,22.9258
2023-05-24T05:32:33.633Z,22.8543
2023-05-24T05:33:35.643Z,22.7896
2023-05-24T05:34:37.671Z,22.8097
2023-05-24T05:35:39.718Z,22.8524
2023-05-24T05:36:41.754Z,22.8052
2023-05-24T05:37:43.852Z,22.8522
2023-05-24T05:38:45.830Z,22.8496
2023-05-24T05:39:47.913Z,22.9498
2023-05-24T05:40:49.949Z,23.0301
2023-05-24T05:41:51.987Z,23.0767
2023-05-24T05:42:54.025Z,23.0283
2023-05-24T05:43:56.347Z,22.9465
2023-05-24T05:44:58.166Z,22.9050
2023-05-24T05:46:00.230Z,23.0016
2023-05-24T05:47:02.254Z,23.1024
2023-05-24T05:48:04.334Z,23.1361
2023-05-24T05:49:06.398Z,23.1653
2023-05-24T05:50:08.406Z,23.2037
2023-05-24T05:51:10.450Z,23.2181
2023-05-24T05:52:12.482Z,23.2815
2023-05-24T05:53:14.523Z,23.2955
2023-05-24T05:54:16.601Z,23.3214
2023-05-24T05:55:18.594Z,23.3002
2023-05-24T05:56:20.647Z,23.3604
2023-05-24T05:57:22.753Z,23.4007
2023-05-24T05:58:24.757Z,23.4670
2023-05-24T05:59:26.804Z,23.4668
2023-05-24T06:00:28.957Z,23.5547
2023-05-24T06:01:30.866Z,23.5307
2023-05-24T06:02:32.970Z,23.5373
2023-05-24T06:03:35.200Z,23.5619
2023-05-24T06:04:37.059Z,23.6215
2023-05-24T06:05:39.063Z,23.5523
2023-05-24T06:06:41.154Z,23.6560
2023-05-24T06:07:43.165Z,23.6677
2023-05-24T06:08:45.282Z,23.6217
2023-05-24T06:09:47.310Z,23.4773
2023-05-24T06:10:52.039Z,23.3787
2023-05-24T06:11:51.389Z,23.2887
2023-05-24T06:12:53.473Z,23.2848
2023-05-24T06:13:55.457Z,23.2546
2023-05-24T06:14:57.561Z,23.2647
2023-05-24T06:15:59.566Z,23.3021
2023-05-24T06:17:01.690Z,23.1897
2023-05-24T06:18:03.819Z,23.1427
2023-05-24T06:19:06.603Z,23.1727
2023-05-24T06:20:07.764Z,23.3200
2023-05-24T06:21:09.807Z,23.1801
2023-05-24T06:22:11.807Z,23.2103
2023-05-24T06:23:14.016Z,23.1480
2023-05-24T06:24:15.901Z,23.1057
2023-05-24T06:25:18.008Z,23.1868
2023-05-24T06:26:20.002Z,23.1965
2023-05-24T06:27:22.151Z,23.2610
2023-05-24T06:28:24.080Z,23.1708
2023-05-24T06:29:26.154Z,23.1361
2023-05-24T06:30:28.385Z,23.1739
2023-05-24T06:31:30.221Z,23.1532
2023-05-24T06:32:32.380Z,23.1211
2023-05-24T06:33:35.766Z,23.1139
2023-05-24T06:34:36.371Z,23.2082
2023-05-24T06:35:38.413Z,23.1353
2023-05-24T06:36:40.465Z,23.0648
2023-05-24T06:37:42.497Z,23.1860
2023-05-24T06:38:44.514Z,23.1186
2023-05-24T06:39:46.626Z,23.1034
2023-05-24T06:40:48.605Z,23.1010
2023-05-24T06:41:50.659Z,22.9478
2023-05-24T06:42:52.736Z,22.8247
2023-05-24T06:43:54.772Z,22.9044
2023-05-24T06:44:56.841Z,22.8609
2023-05-24T06:45:58.884Z,22.8678
2023-05-24T06:47:01.007Z,22.9500
2023-05-24T06:48:05.024Z,22.9956
2023-05-24T06:49:05.054Z,23.0005
2023-05-24T06:50:07.033Z,22.9377
2023-05-24T06:51:09.091Z,23.0192
2023-05-24T06:52:11.130Z,23.1034
2023-05-24T06:53:13.236Z,23.0258
2023-05-24T06:54:15.243Z,23.1320
2023-05-24T06:55:17.254Z,23.0669
2023-05-24T06:56:19.322Z,23.0712
2023-05-24T06:57:21.355Z,23.0096
2023-05-24T06:58:23.392Z,22.9855
2023-05-24T06:59:25.473Z,23.0071
2023-05-24T07:00:27.583Z,23.0268
2023-05-24T07:01:29.671Z,23.0662
2023-05-24T07:02:31.622Z,23.1168
2023-05-24T07:03:33.642Z,23.0242
2023-05-24T07:04:37.532Z,23.0350
2023-05-24T07:05:37.719Z,23.0192
2023-05-24T07:06:39.829Z,22.9866
2023-05-24T07:07:41.817Z,22.9011
2023-05-24T07:08:43.833Z,22.7939
2023-05-24T07:09:45.896Z,22.9328
2023-05-24T07:10:48.119Z,22.9823
2023-05-24T07:11:50.020Z,23.0899
2023-05-24T07:12:52.016Z,23.1326
2023-05-24T07:13:54.076Z,23.1404
2023-05-24T07:14:56.120Z,23.1585
2023-05-24T07:15:58.158Z,23.1770
2023-05-24T07:17:00.340Z,23.1338
2023-05-24T07:18:02.342Z,23.2439
2023-05-24T07:19:04.949Z,23.2234
2023-05-24T07:20:06.359Z,23.2288
2023-05-24T07:21:08.404Z,23.2310
2023-05-24T07:22:10.496Z,23.2587
2023-05-24T07:23:12.552Z,23.2341
2023-05-24T07:24:16.229Z,23.2220
2023-05-24T07:25:16.581Z,23.2372
2023-05-24T07:26:18.644Z,23.1716
2023-05-24T07:27:20.650Z,23.1347
2023-05-24T07:28:22.741Z,23.0240
2023-05-24T07:29:24.981Z,23.0040
2023-05-24T07:30:32.301Z,22.9258
2023-05-24T07:31:28.870Z,22.8927
2023-05-24T07:32:30.990Z,22.9638
2023-05-24T07:33:33.040Z,22.9003
2023-05-24T07:34:35.027Z,22.9058
2023-05-24T07:35:37.087Z,22.9311
2023-05-24T07:36:39.301Z,22.8023
2023-05-24T07:37:41.228Z,22.7748
2023-05-24T07:38:43.328Z,22.6988
2023-05-24T07:39:45.224Z,22.6787
2023-05-24T07:40:47.340Z,22.6852
2023-05-24T07:41:49.330Z,22.6947
2023-05-24T07:42:51.416Z,22.6885
2023-05-24T07:43:53.478Z,22.7197
2023-05-24T07:44:55.549Z,22.7760
2023-05-24T07:45:57.522Z,22.6121
2023-05-24T07:46:59.731Z,22.5723
2023-05-24T07:48:01.861Z,22.6739
2023-05-24T07:49:03.673Z,22.8662
2023-05-24T07:50:06.065Z,23.0040
2023-05-24T07:51:08.059Z,23.0636
2023-05-24T07:52:09.784Z,23.1414
2023-05-24T07:53:11.853Z,23.1661
2023-05-24T07:54:13.894Z,23.1170
2023-05-24T07:55:15.940Z,23.1012
2023-05-24T07:56:17.953Z,23.0926
2023-05-24T07:57:20.035Z,23.0373
2023-05-24T07:58:22.093Z,23.0441
2023-05-24T07:59:24.106Z,23.1275
2023-05-24T08:00:26.259Z,23.0145
2023-05-24T08:01:28.213Z,22.9693
2023-05-24T08:02:30.439Z,22.9402
2023-05-24T08:03:32.379Z,22.9367
2023-05-24T08:04:34.367Z,22.9052
2023-05-24T08:05:36.562Z,22.8455
2023-05-24T08:06:38.496Z,22.7764
2023-05-24T08:07:40.469Z,22.7840
2023-05-24T08:08:42.555Z,22.7828
2023-05-24T08:09:44.651Z,22.7335
2023-05-24T08:10:46.604Z,22.8469
2023-05-24T08:11:48.664Z,22.9024
2023-05-24T08:12:50.667Z,23.0441
2023-05-24T08:13:52.721Z,23.0702
2023-05-24T08:14:55.272Z,23.1811
2023-05-24T08:15:56.879Z,23.2041
2023-05-24T08:16:58.887Z,23.0650
2023-05-24T08:18:00.973Z,23.0235
2023-05-24T08:19:03.017Z,22.8939
2023-05-24T08:20:05.084Z,22.8309
2023-05-24T08:21:07.035Z,22.9196
2023-05-24T08:22:09.239Z,22.9326
2023-05-24T08:23:11.351Z,22.9305
2023-05-24T08:24:13.186Z,23.0854
2023-05-24T08:25:16.974Z,23.1905
2023-05-24T08:26:17.486Z,23.2464
2023-05-24T08:27:19.314Z,23.2904
2023-05-24T08:28:21.484Z,23.2998
2023-05-24T08:29:23.423Z,23.3269
2023-05-24T08:30:25.734Z,23.3982
2023-05-24T08:31:27.564Z,23.4183
2023-05-24T08:32:29.587Z,23.4539
2023-05-24T08:33:31.630Z,23.4483
2023-05-24T08:34:33.747Z,23.4648
2023-05-24T08:35:35.776Z,23.5028
2023-05-24T08:36:37.831Z,23.3376
2023-05-24T08:37:39.955Z,23.3150
2023-05-24T08:38:41.927Z,23.3473
2023-05-24T08:39:44.120Z,23.3228
2023-05-24T08:40:46.076Z,23.2460
2023-05-24T08:42:01.026Z,23.3752
2023-05-24T08:42:50.151Z,23.3725
2023-05-24T08:43:52.185Z,23.2678
2023-05-24T08:44:54.205Z,23.3594
2023-05-24T08:45:56.282Z,23.2460
2023-05-24T08:46:58.369Z,23.1250
2023-05-24T08:48:00.463Z,23.0691
2023-05-24T08:49:02.548Z,22.9911
2023-05-24T08:50:04.499Z,23.1115
2023-05-24T08:51:06.630Z,23.0542
2023-05-24T08:52:08.642Z,23.0453
2023-05-24T08:53:10.573Z,23.0038
2023-05-24T08:54:12.662Z,23.0018
2023-05-24T08:55:14.680Z,22.9389
2023-05-24T08:56:16.780Z,22.9572
2023-05-24T08:57:18.756Z,22.9085
2023-05-24T08:58:20.838Z,22.8352
2023-05-24T08:59:22.856Z,22.9100
2023-05-24T09:00:24.931Z,22.9562
2023-05-24T09:01:28.953Z,22.9284
2023-05-24T09:02:29.007Z,22.8894
2023-05-24T09:03:31.148Z,22.8370
2023-05-24T09:04:33.109Z,22.8923
2023-05-24T09:05:35.168Z,22.9391
2023-05-24T09:06:37.191Z,22.9153
2023-05-24T09:07:39.259Z,23.0139
2023-05-24T09:08:43.628Z,22.9046
2023-05-24T09:09:43.323Z,23.0096
2023-05-24T09:10:54.554Z,22.9048
2023-05-24T09:11:47.423Z,22.9802
2023-05-24T09:12:49.470Z,22.9391
2023-05-24T09:13:51.488Z,23.0324
2023-05-24T09:14:53.621Z,23.1447
2023-05-24T09:15:55.661Z,23.0525
2023-05-24T09:16:57.665Z,23.0279
2023-05-24T09:17:59.702Z,23.0172
2023-05-24T09:19:01.747Z,23.0051
2023-05-24T09:20:03.856Z,23.1856
2023-05-24T09:21:05.866Z,23.2600
2023-05-24T09:22:08.202Z,23.3339
2023-05-24T09:23:10.032Z,23.3682
2023-05-24T09:24:11.995Z,23.2861
2023-05-24T09:25:14.083Z,23.2774
2023-05-24T09:26:16.120Z,23.2645
2023-05-24T09:27:18.122Z,23.1640
2023-05-24T09:28:20.167Z,23.2374
2023-05-24T09:29:22.359Z,23.2641
2023-05-24T09:30:24.279Z,23.2980
2023-05-24T09:31:26.344Z,23.3789
2023-05-24T09:32:28.437Z,23.3491
2023-05-24T09:33:30.393Z,23.1328
2023-05-24T09:34:32.407Z,23.0242
2023-05-24T09:35:34.645Z,22.9204
2023-05-24T09:36:36.545Z,22.9703
2023-05-24T09:37:38.757Z,23.0016
2023-05-24T09:38:40.691Z,23.0905
2023-05-24T09:39:42.701Z,23.1291
2023-05-24T09:40:44.727Z,23.1057
2023-05-24T09:41:46.910Z,23.0961
2023-05-24T09:42:49.834Z,23.0289
2023-05-24T09:43:50.896Z,23.1092
2023-05-24T09:44:53.184Z,23.2191
2023-05-24T09:45:54.960Z,23.1573
2023-05-24T09:46:57.027Z,23.0439
2023-05-24T09:47:59.137Z,22.9297
2023-05-24T09:49:01.081Z,23.0320
2023-05-24T09:50:03.165Z,23.0418
2023-05-24T09:51:05.196Z,23.0398
2023-05-24T09:52:07.305Z,22.9749
2023-05-24T09:53:09.289Z,22.9977
2023-05-24T09:54:11.296Z,23.0831
2023-05-24T09:55:13.366Z,23.1616
2023-05-24T09:56:15.430Z,23.2587
2023-05-24T09:57:17.427Z,23.2698
2023-05-24T09:58:19.484Z,23.3099
2023-05-24T09:59:21.553Z,23.3584
2023-05-24T10:00:23.658Z,23.3292
2023-05-24T10:01:25.688Z,23.2051
2023-05-24T10:02:31.369Z,23.2035
2023-05-24T10:03:29.864Z,22.9833
2023-05-24T10:04:31.861Z,22.8935
2023-05-24T10:05:33.938Z,22.7805
2023-05-24T10:06:35.871Z,22.6971
2023-05-24T10:07:37.903Z,22.6854
2023-05-24T10:08:40.046Z,22.6951
2023-05-24T10:09:42.022Z,22.6158
2023-05-24T10:10:44.456Z,22.4774
2023-05-24T10:11:46.275Z,22.4463
2023-05-24T10:12:48.322Z,22.3685
2023-05-24T10:13:50.214Z,22.4063
2023-05-24T10:14:52.330Z,22.3525
2023-05-24T10:15:54.407Z,22.4400
2023-05-24T10:16:56.389Z,22.5053
2023-05-24T10:17:58.583Z,22.5488
2023-05-24T10:19:00.447Z,22.6224
2023-05-24T10:20:02.556Z,22.8231
2023-05-24T10:21:04.762Z,22.8717
2023-05-24T10:22:06.592Z,22.8935
2023-05-24T10:23:08.628Z,22.7810
2023-05-24T10:24:10.733Z,22.9194
2023-05-24T10:25:12.835Z,23.0075
2023-05-24T10:26:14.833Z,23.0057
2023-05-24T10:27:16.967Z,22.9779
2023-05-24T10:28:18.923Z,23.0451
2023-05-24T10:29:20.938Z,23.1265
2023-05-24T10:30:23.005Z,23.1737
2023-05-24T10:31:25.127Z,23.0669
2023-05-24T10:32:27.203Z,23.1197
2023-05-24T10:33:29.166Z,23.1856
2023-05-24T10:34:31.232Z,23.1490
2023-05-24T10:35:33.246Z,23.1207
2023-05-24T10:36:35.308Z,23.1371
2023-05-24T10:37:38.010Z,23.1511
2023-05-24T10:38:39.434Z,23.1544
2023-05-24T10:39:41.475Z,23.1965
2023-05-24T10:40:43.503Z,23.2717
2023-05-24T10:41:45.608Z,23.2331
2023-05-24T10:42:47.685Z,23.2041
2023-05-24T10:44:07.301Z,23.2177
2023-05-24T10:44:51.743Z,23.2696
2023-05-24T10:45:53.838Z,23.2781
2023-05-24T10:46:55.876Z,23.3249
2023-05-24T10:47:57.907Z,23.4105
2023-05-24T10:48:59.931Z,23.4077
2023-05-24T10:50:02.008Z,23.3286
2023-05-24T10:51:04.210Z,23.3707
2023-05-24T10:52:06.062Z,23.3430
2023-05-24T10:53:08.119Z,23.2602
2023-05-24T10:54:10.191Z,23.2828
2023-05-24T10:55:12.241Z,23.3958
2023-05-24T10:56:14.290Z,23.4194
2023-05-24T10:57:16.350Z,23.3440
2023-05-24T10:58:18.372Z,23.3598
2023-05-24T10:59:20.416Z,23.3138
2023-05-24T11:00:33.683Z,23.2945
2023-05-24T11:01:24.593Z,23.2676
2023-05-24T11:02:26.650Z,23.3594
2023-05-24T11:03:28.923Z,23.4432
2023-05-24T11:04:30.700Z,23.4617
2023-05-24T11:05:32.751Z,23.5093
2023-05-24T11:06:34.811Z,23.5028
2023-05-24T11:07:36.854Z,23.5159
2023-05-24T11:08:38.921Z,23.5695
2023-05-24T11:09:40.944Z,23.5402
2023-05-24T11:10:43.380Z,23.6106
2023-05-24T11:11:45.023Z,23.5578
2023-05-24T11:12:47.125Z,23.4465
2023-05-24T11:13:49.153Z,23.4526
2023-05-24T11:14:51.231Z,23.3824
2023-05-24T11:15:53.281Z,23.2696
2023-05-24T11:16:55.385Z,23.2341
2023-05-24T11:17:57.522Z,23.1973
2023-05-24T11:18:59.408Z,23.1078
2023-05-24T11:20:01.511Z,23.1669
2023-05-24T11:21:04.097Z,23.0757
2023-05-24T11:22:05.561Z,23.0071
2023-05-24T11:23:07.593Z,23.0846
2023-05-24T11:24:09.768Z,23.1150
2023-05-24T11:25:11.692Z,23.1499
2023-05-24T11:26:13.775Z,23.1154
2023-05-24T11:27:15.810Z,23.1986
2023-05-24T11:28:17.900Z,23.2298
2023-05-24T11:29:19.911Z,23.1341
2023-05-24T11:30:21.935Z,23.1193
2023-05-24T11:31:24.035Z,23.1032
2023-05-24T11:32:26.151Z,23.0819
2023-05-24T11:33:28.097Z,23.1920
2023-05-24T11:34:30.116Z,23.1624
2023-05-24T11:35:32.197Z,23.2318
2023-05-24T11:36:34.235Z,23.2045
2023-05-24T11:37:46.135Z,23.2269
2023-05-24T11:38:38.318Z,23.2386
2023-05-24T11:39:40.399Z,23.1912
2023-05-24T11:40:42.675Z,23.2279
2023-05-24T11:41:44.513Z,23.1955
2023-05-24T11:42:46.548Z,23.1464
2023-05-24T11:43:48.603Z,23.1328
2023-05-24T11:44:51.017Z,23.1661
2023-05-24T11:45:52.802Z,23.1930
2023-05-24T11:46:54.781Z,23.0897
2023-05-24T11:47:56.854Z,23.1082
2023-05-24T11:48:58.804Z,23.1026
2023-05-24T11:50:00.847Z,23.1392
2023-05-24T11:51:02.895Z,23.1371
2023-05-24T11:52:04.966Z,23.1197
2023-05-24T11:53:07.027Z,23.1889
2023-05-24T11:54:09.052Z,23.0973
2023-05-24T11:55:11.115Z,23.0689
2023-05-24T11:56:13.136Z,23.1057
2023-05-24T11:57:15.164Z,23.1782
2023-05-24T11:58:17.253Z,23.1983
2023-05-24T11:59:19.279Z,23.1012
2023-05-24T12:00:21.526Z,23.1825
2023-05-24T12:01:23.584Z,23.1940
2023-05-24T12:02:25.443Z,23.1488
2023-05-24T12:03:27.618Z,23.1069
2023-05-24T12:04:29.742Z,23.1295
2023-05-24T12:05:31.558Z,23.2027
2023-05-24T12:06:33.597Z,23.1716
2023-05-24T12:07:35.690Z,23.1363
2023-05-24T12:08:37.678Z,23.1523
2023-05-24T12:09:39.758Z,23.2967
2023-05-24T12:10:41.991Z,23.2532
2023-05-24T12:11:43.870Z,23.3674
2023-05-24T12:12:46.335Z,23.4590
2023-05-24T12:13:47.917Z,23.4087
2023-05-24T12:14:49.932Z,23.3247
2023-05-24T12:15:54.897Z,23.3828
2023-05-24T12:16:54.043Z,23.4592
2023-05-24T12:17:56.719Z,23.4605
2023-05-24T12:19:05.348Z,23.4759
2023-05-24T12:20:00.315Z,23.5494
2023-05-24T12:21:02.237Z,23.4463
2023-05-24T12:22:04.284Z,23.4103
2023-05-24T12:23:06.317Z,23.4722
2023-05-24T12:24:08.418Z,23.3894
2023-05-24T12:25:10.465Z,23.3951
2023-05-24T12:26:12.448Z,23.3651
2023-05-24T12:27:14.529Z,23.3386
2023-05-24T12:28:16.554Z,23.2606
2023-05-24T12:29:18.805Z,23.2411
2023-05-24T12:30:20.642Z,23.2731
2023-05-24T12:31:22.697Z,23.2569
2023-05-24T12:32:24.791Z,23.3280
2023-05-24T12:33:26.781Z,23.2302
2023-05-24T12:34:28.847Z,23.2760
2023-05-24T12:35:30.884Z,23.1973
2023-05-24T12:36:32.941Z,23.2877
2023-05-24T12:37:34.950Z,23.2565
2023-05-24T12:38:37.009Z,23.1673
2023-05-24T12:39:39.141Z,23.1645
2023-05-24T12:40:41.354Z,23.1725
2023-05-24T12:41:43.239Z,23.1714
2023-05-24T12:42:45.335Z,23.2218
2023-05-24T12:43:47.314Z,23.1930
2023-05-24T12:44:49.377Z,23.3185
2023-05-24T12:45:53.604Z,23.2945
2023-05-24T12:46:53.539Z,23.2016
2023-05-24T12:47:55.526Z,23.3360
2023-05-24T12:48:57.545Z,23.3111
2023-05-24T12:49:59.732Z,23.2257
2023-05-24T12:51:01.697Z,23.1616
2023-05-24T12:52:03.693Z,23.1755
2023-05-24T12:53:05.745Z,23.1314
2023-05-24T12:54:07.822Z,23.0895
2023-05-24T12:55:09.985Z,23.1299
2023-05-24T12:56:11.949Z,23.1540
2023-05-24T12:57:13.981Z,23.1813
2023-05-24T12:58:15.986Z,23.1809
2023-05-24T12:59:18.062Z,23.0638
2023-05-24T13:00:20.055Z,23.1006
2023-05-24T13:01:22.366Z,23.0466
2023-05-24T13:02:24.176Z,23.0371
2023-05-24T13:03:26.189Z,23.0287
2023-05-24T13:04:28.264Z,23.0866
2023-05-24T13:05:30.403Z,23.1912
2023-05-24T13:06:32.334Z,23.2481
2023-05-24T13:07:34.454Z,23.2181
2023-05-24T13:08:38.116Z,23.2579
2023-05-24T13:09:38.506Z,23.1949
2023-05-24T13:10:40.654Z,23.2341
2023-05-24T13:11:42.592Z,23.1704
2023-05-24T13:12:44.619Z,23.2195
2023-05-24T13:13:47.133Z,23.2189
2023-05-24T13:14:50.679Z,23.2481
2023-05-24T13:15:50.759Z,23.3325
2023-05-24T13:16:53.073Z,23.2460
2023-05-24T13:17:54.998Z,23.2201
2023-05-24T13:18:56.924Z,23.2363
2023-05-24T13:20:01.726Z,23.2316
2023-05-24T13:21:00.993Z,23.1262
2023-05-24T13:22:03.062Z,23.2306
2023-05-24T13:23:05.111Z,23.3152
2023-05-24T13:24:07.102Z,23.1813
2023-05-24T13:25:09.157Z,23.2086
2023-05-24T13:26:11.239Z,23.1792
2023-05-24T13:27:13.289Z,23.0441
2023-05-24T13:28:15.324Z,23.0593
2023-05-24T13:29:34.181Z,22.9987
2023-05-24T13:30:19.418Z,22.9921
2023-05-24T13:31:21.488Z,22.9617
2023-05-24T13:32:23.574Z,22.9931
2023-05-24T13:33:25.530Z,22.9619
2023-05-24T13:34:27.582Z,22.9724
2023-05-24T13:35:29.620Z,23.0001
2023-05-24T13:36:31.672Z,23.0474
2023-05-24T13:37:33.754Z,23.1110
2023-05-24T13:38:35.769Z,23.0786
2023-05-24T13:39:37.835Z,23.0809
2023-05-24T13:40:41.777Z,23.1078
2023-05-24T13:41:42.174Z,23.1955
2023-05-24T13:42:44.017Z,23.2986
2023-05-24T13:43:45.985Z,23.3335
2023-05-24T13:44:48.032Z,23.3487
2023-05-24T13:45:50.070Z,23.3746
2023-05-24T13:46:52.165Z,23.4200
2023-05-24T13:47:54.216Z,23.4001
2023-05-24T13:48:56.247Z,23.4420
2023-05-24T13:49:58.241Z,23.3797
2023-05-24T13:51:00.301Z,23.3740
2023-05-24T13:52:02.389Z,23.4286
2023-05-24T13:53:04.414Z,23.3927
2023-05-24T13:54:06.437Z,23.4459
2023-05-24T13:55:08.530Z,23.4835
2023-05-24T13:56:10.516Z,23.5147
2023-05-24T13:57:12.652Z,23.5326
2023-05-24T13:58:14.602Z,23.4962
2023-05-24T13:59:16.735Z,23.5525
2023-05-24T14:00:18.737Z,23.5882
2023-05-24T14:01:20.932Z,23.5892
2023-05-24T14:02:22.848Z,23.5827
2023-05-24T14:03:24.835Z,23.6209
2023-05-24T14:04:26.884Z,23.5816
2023-05-24T14:05:28.969Z,23.5611
2023-05-24T14:06:30.987Z,23.5880
2023-05-24T14:07:33.087Z,23.5816
2023-05-24T14:08:35.097Z,23.5868
2023-05-24T14:09:37.217Z,23.6474
2023-05-24T14:10:39.220Z,23.6850
2023-05-24T14:11:41.348Z,23.6139
2023-05-24T14:12:43.287Z,23.4970
2023-05-24T14:15:49.520Z,23.4040
2023-05-24T14:16:51.453Z,23.4648
2023-05-24T14:17:53.605Z,23.4307
2023-05-24T14:18:55.553Z,23.3113
2023-05-24T14:19:57.750Z,23.3095
2023-05-24T14:20:59.655Z,23.2760
2023-05-24T14:22:01.731Z,23.2686
2023-05-24T14:23:03.932Z,23.3670
2023-05-24T14:24:05.809Z,23.3729
2023-05-24T14:25:07.825Z,23.3415
2023-05-24T14:26:09.935Z,23.3146
2023-05-24T14:27:11.907Z,23.4091
2023-05-24T14:28:14.016Z,23.4362
2023-05-24T14:29:16.084Z,23.4352
2023-05-24T14:30:18.125Z,23.4448
2023-05-24T14:31:20.139Z,23.4179
2023-05-24T14:32:22.386Z,23.4159
2023-05-24T14:33:24.180Z,23.4257
2023-05-24T14:34:26.280Z,23.3853
2023-05-24T14:35:28.313Z,23.5058
2023-05-24T14:36:30.407Z,23.3972
2023-05-24T14:37:32.457Z,23.4206
2023-05-24T14:38:34.418Z,23.5026
2023-05-24T14:39:36.477Z,23.3458
2023-05-24T14:40:39.051Z,23.3592
2023-05-24T14:41:40.585Z,23.3725
2023-05-24T14:42:42.605Z,23.3865
2023-05-24T14:43:44.663Z,23.3670
2023-05-24T14:44:46.716Z,23.4155
2023-05-24T14:45:49.094Z,23.4005
2023-05-24T14:46:52.007Z,23.5102
2023-05-24T14:47:52.909Z,23.4278
2023-05-24T14:48:54.919Z,23.3399
2023-05-24T14:49:56.923Z,23.4646
2023-05-24T14:50:58.993Z,23.4514
2023-05-24T14:52:01.089Z,23.3647
2023-05-24T14:53:03.093Z,23.4122
2023-05-24T14:54:05.180Z,23.4212
2023-05-24T14:55:07.215Z,23.4833
2023-05-24T14:56:09.314Z,23.4058
2023-05-24T14:57:11.313Z,23.2425
2023-05-24T14:58:13.346Z,23.2355
2023-05-24T14:59:15.369Z,23.3021
2023-05-24T15:00:19.784Z,23.2883
2023-05-24T15:01:19.526Z,23.3693
2023-05-24T15:02:21.673Z,23.2610
2023-05-24T15:03:23.717Z,23.2555
2023-05-24T15:04:25.617Z,23.3769
2023-05-24T15:05:27.660Z,23.4136
2023-05-24T15:06:29.729Z,23.3705
2023-05-24T15:07:31.797Z,23.4227
2023-05-24T15:08:33.873Z,23.3941
2023-05-24T15:09:35.826Z,23.4101
2023-05-24T15:10:37.939Z,23.4461
2023-05-24T15:11:40.035Z,23.4255
2023-05-24T15:12:42.057Z,23.4268
2023-05-24T15:13:44.056Z,23.3257
2023-05-24T15:14:46.089Z,23.2988
2023-05-24T15:15:48.130Z,23.3148
2023-05-24T15:16:50.232Z,23.3619
2023-05-24T15:17:52.290Z,23.3134
2023-05-24T15:18:54.283Z,23.3095
2023-05-24T15:19:56.337Z,23.2996
2023-05-24T15:20:58.422Z,23.3142
2023-05-24T15:22:00.534Z,23.2861
2023-05-24T15:23:02.439Z,23.2470
2023-05-24T15:24:04.517Z,23.1390
2023-05-24T15:25:06.570Z,23.1552
2023-05-24T15:26:08.636Z,23.1503
2023-05-24T15:27:10.741Z,23.0355
2023-05-24T15:28:12.806Z,23.0053
2023-05-24T15:29:14.736Z,22.8662
2023-05-24T15:30:16.827Z,22.8292
2023-05-24T15:31:18.867Z,22.7949
2023-05-24T15:32:20.864Z,22.7561
2023-05-24T15:33:23.005Z,22.8759
2023-05-24T15:34:24.976Z,22.9260
2023-05-24T15:35:27.020Z,23.0496
2023-05-24T15:36:29.087Z,23.0009
2023-05-24T15:37:31.151Z,23.0786
2023-05-24T15:38:33.164Z,23.0408
2023-05-24T15:39:35.204Z,22.9412
2023-05-24T15:40:37.247Z,22.8968
2023-05-24T15:41:39.336Z,22.8563
2023-05-24T15:42:41.469Z,22.8188
2023-05-24T15:43:43.426Z,22.8943
2023-05-24T15:44:45.440Z,23.0669
2023-05-24T15:45:47.493Z,23.1359
2023-05-24T15:46:49.606Z,23.2341
2023-05-24T15:47:51.682Z,23.2606
2023-05-24T15:48:53.657Z,23.2439
2023-05-24T15:49:55.754Z,23.2388
2023-05-24T15:51:25.693Z,23.0605
2023-05-24T15:52:04.329Z,23.1117
2023-05-24T15:53:02.069Z,23.1468
2023-05-24T15:54:03.921Z,23.2536
2023-05-24T15:55:05.944Z,23.2203
2023-05-24T15:56:08.064Z,23.1834
2023-05-24T15:57:10.079Z,23.1133
2023-05-24T15:58:12.155Z,23.1509
2023-05-24T15:59:14.191Z,23.1951
2023-05-24T16:00:16.224Z,23.2624
2023-05-24T16:01:18.339Z,23.2509
2023-05-24T16:02:21.616Z,23.2341
2023-05-24T16:03:22.505Z,23.3707
2023-05-24T16:04:24.395Z,23.3960
2023-05-24T16:05:26.567Z,23.3140
2023-05-24T16:06:28.498Z,23.3715
2023-05-24T16:07:30.523Z,23.3964
2023-05-24T16:08:32.601Z,23.3621
2023-05-24T16:09:34.641Z,23.3538
2023-05-24T16:10:36.663Z,23.3029
2023-05-24T16:11:38.710Z,23.2579
2023-05-24T16:12:40.888Z,23.2844
2023-05-24T16:13:42.825Z,23.2191
2023-05-24T16:14:44.910Z,23.2189
2023-05-24T16:15:47.005Z,23.2062
2023-05-24T16:16:49.078Z,23.2448
2023-05-24T16:17:51.148Z,23.2764
2023-05-24T16:18:53.099Z,23.2957
2023-05-24T16:19:55.311Z,23.3339
2023-05-24T16:20:57.311Z,23.3393
2023-05-24T16:21:59.237Z,23.3791
2023-05-24T16:23:01.266Z,23.4471
2023-05-24T16:24:03.336Z,23.4282
2023-05-24T16:25:05.357Z,23.5079
2023-05-24T16:26:07.406Z,23.4685
2023-05-24T16:27:09.526Z,23.5784
2023-05-24T16:28:11.579Z,23.6137
2023-05-24T16:29:13.579Z,23.5504
2023-05-24T16:30:15.731Z,23.5782
2023-05-24T16:31:17.755Z,23.5872
2023-05-24T16:32:19.827Z,23.5167
2023-05-24T16:33:21.763Z,23.4894
2023-05-24T16:34:23.820Z,23.4812
2023-05-24T16:35:25.915Z,23.4492
2023-05-24T16:36:27.865Z,23.4383
2023-05-24T16:37:29.947Z,23.4691
2023-05-24T16:38:33.220Z,23.4374
2023-05-24T16:39:34.105Z,23.3777
2023-05-24T16:40:36.106Z,23.2322
2023-05-24T16:41:38.378Z,23.2479
2023-05-24T16:42:40.182Z,23.1714
2023-05-24T16:43:42.419Z,23.1848
2023-05-24T16:44:44.572Z,23.1189
2023-05-24T16:45:46.462Z,23.0613
2023-05-24T16:46:48.454Z,23.0092
2023-05-24T16:47:50.544Z,23.0634
2023-05-24T16:48:52.576Z,22.9488
2023-05-24T16:49:54.623Z,23.0776
2023-05-24T16:50:56.752Z,23.1037
2023-05-24T16:51:58.832Z,23.0552
2023-05-24T16:53:00.809Z,23.0585
2023-05-24T16:54:02.793Z,23.1236
2023-05-24T16:55:04.900Z,23.0365
2023-05-24T16:56:07.022Z,23.0020
2023-05-24T16:57:09.243Z,22.9488
2023-05-24T16:58:11.002Z,23.0463
2023-05-24T16:59:13.273Z,23.0451
2023-05-24T17:00:15.106Z,23.0876
2023-05-24T17:01:17.191Z,23.1712
2023-05-24T17:02:19.189Z,23.1844
2023-05-24T17:03:21.330Z,23.1435